sensor_id;sensor_type;location;lat;lon;timestamp;pressure;altitude;pressure_sealevel;temperature;humidity
31092;BME280;67728;53.122;12.776;2023-03-15T00:00:47;99768.19;;;0.14;82.24
31092;BME280;67728;53.122;12.776;2023-03-15T00:02:21;99768.19;;;0.14;81.91
31092;BME280;67728;53.122;12.776;2023-03-15T00:03:53;99769.88;;;0.14;81.96
31092;BME280;67728;53.122;12.776;2023-03-15T00:05:24;99772.41;;;0.12;82.71
31092;BME280;67728;53.122;12.776;2023-03-15T00:06:56;99784.31;;;0.12;82.84
31092;BME280;67728;53.122;12.776;2023-03-15T00:08:28;99776.66;;;0.10;82.75
31092;BME280;67728;53.122;12.776;2023-03-15T00:10:02;99776.69;;;0.15;82.28
31092;BME280;67728;53.122;12.776;2023-03-15T00:11:34;99786.84;;;0.12;82.27
31092;BME280;67728;53.122;12.776;2023-03-15T00:13:06;99796.19;;;0.11;82.42
31092;BME280;67728;53.122;12.776;2023-03-15T00:14:38;99802.16;;;0.12;82.83
31092;BME280;67728;53.122;12.776;2023-03-15T00:16:10;99808.06;;;0.09;82.13
31092;BME280;67728;53.122;12.776;2023-03-15T00:17:49;99802.94;;;0.06;81.93
31092;BME280;67728;53.122;12.776;2023-03-15T00:19:20;99802.06;;;0.04;82.63
31092;BME280;67728;53.122;12.776;2023-03-15T00:20:52;99806.34;;;0.05;82.87
31092;BME280;67728;53.122;12.776;2023-03-15T00:22:23;99807.16;;;0.03;82.61
31092;BME280;67728;53.122;12.776;2023-03-15T00:23:55;99813.09;;;0.03;83.04
31092;BME280;67728;53.122;12.776;2023-03-15T00:25:26;99817.31;;;0.01;82.80
31092;BME280;67728;53.122;12.776;2023-03-15T00:26:58;99817.34;;;0.03;83.11
31092;BME280;67728;53.122;12.776;2023-03-15T00:28:30;99819.03;;;0.02;83.16
31092;BME280;67728;53.122;12.776;2023-03-15T00:30:00;99823.22;;;-0.03;83.68
31092;BME280;67728;53.122;12.776;2023-03-15T00:31:32;99826.59;;;-0.06;83.64
31092;BME280;67728;53.122;12.776;2023-03-15T00:33:06;99825.69;;;-0.08;83.87
31092;BME280;67728;53.122;12.776;2023-03-15T00:34:38;99806.03;;;-0.19;83.45
31092;BME280;67728;53.122;12.776;2023-03-15T00:36:10;99818.88;;;-0.10;83.42
31092;BME280;67728;53.122;12.776;2023-03-15T00:37:42;99823.09;;;-0.11;83.73
31092;BME280;67728;53.122;12.776;2023-03-15T00:39:14;99825.69;;;-0.09;83.86
31092;BME280;67728;53.122;12.776;2023-03-15T00:40:46;99823.97;;;-0.12;83.73
31092;BME280;67728;53.122;12.776;2023-03-15T00:42:18;99828.19;;;-0.12;83.69
31092;BME280;67728;53.122;12.776;2023-03-15T00:43:50;99828.16;;;-0.15;83.36
31092;BME280;67728;53.122;12.776;2023-03-15T00:45:22;99831.56;;;-0.15;83.74
31092;BME280;67728;53.122;12.776;2023-03-15T00:46:53;99837.47;;;-0.16;83.43
31092;BME280;67728;53.122;12.776;2023-03-15T00:48:26;99841.72;;;-0.16;83.86
31092;BME280;67728;53.122;12.776;2023-03-15T00:49:59;99836.66;;;-0.15;83.42
31092;BME280;67728;53.122;12.776;2023-03-15T00:51:30;99845.09;;;-0.19;83.43
31092;BME280;67728;53.122;12.776;2023-03-15T00:53:03;99841.72;;;-0.18;83.33
31092;BME280;67728;53.122;12.776;2023-03-15T00:54:34;99846.84;;;-0.13;84.10
31092;BME280;67728;53.122;12.776;2023-03-15T00:56:08;99846.91;;;-0.10;83.86
31092;BME280;67728;53.122;12.776;2023-03-15T00:57:41;99845.13;;;-0.16;83.88
31092;BME280;67728;53.122;12.776;2023-03-15T00:59:13;99843.34;;;-0.21;84.25
31092;BME280;67728;53.122;12.776;2023-03-15T01:00:45;99845.78;;;-0.30;84.01
31092;BME280;67728;53.122;12.776;2023-03-15T01:02:16;99848.31;;;-0.32;84.10
31092;BME280;67728;53.122;12.776;2023-03-15T01:03:52;99850.84;;;-0.32;84.49
31092;BME280;67728;53.122;12.776;2023-03-15T01:05:23;99854.25;;;-0.33;83.93
31092;BME280;67728;53.122;12.776;2023-03-15T01:06:56;99850.81;;;-0.35;84.51
31092;BME280;67728;53.122;12.776;2023-03-15T01:08:28;99855.03;;;-0.37;84.93
31092;BME280;67728;53.122;12.776;2023-03-15T01:10:01;99855.94;;;-0.33;84.79
31092;BME280;67728;53.122;12.776;2023-03-15T01:11:31;99866.09;;;-0.35;84.62
31092;BME280;67728;53.122;12.776;2023-03-15T01:13:04;99860.94;;;-0.38;84.60
31092;BME280;67728;53.122;12.776;2023-03-15T01:14:36;99875.47;;;-0.32;84.19
31092;BME280;67728;53.122;12.776;2023-03-15T01:16:09;99873.72;;;-0.35;84.43
31092;BME280;67728;53.122;12.776;2023-03-15T01:17:42;99870.31;;;-0.37;84.28
31092;BME280;67728;53.122;12.776;2023-03-15T01:19:16;99870.31;;;-0.37;85.04
31092;BME280;67728;53.122;12.776;2023-03-15T01:20:47;99876.28;;;-0.35;84.62
31092;BME280;67728;53.122;12.776;2023-03-15T01:22:20;99877.13;;;-0.34;84.53
31092;BME280;67728;53.122;12.776;2023-03-15T01:23:53;99882.28;;;-0.31;84.07
31092;BME280;67728;53.122;12.776;2023-03-15T01:25:25;99873.78;;;-0.33;84.42
31092;BME280;67728;53.122;12.776;2023-03-15T01:26:56;99881.41;;;-0.32;83.95
31092;BME280;67728;53.122;12.776;2023-03-15T01:28:28;99884.72;;;-0.37;84.63
31092;BME280;67728;53.122;12.776;2023-03-15T01:30:00;99890.69;;;-0.37;84.53
31092;BME280;67728;53.122;12.776;2023-03-15T01:31:32;99889.06;;;-0.33;84.77
31092;BME280;67728;53.122;12.776;2023-03-15T01:33:03;99886.50;;;-0.33;84.52
31092;BME280;67728;53.122;12.776;2023-03-15T01:34:36;99889.06;;;-0.32;83.78
31092;BME280;67728;53.122;12.776;2023-03-15T01:36:09;99892.53;;;-0.28;83.69
31092;BME280;67728;53.122;12.776;2023-03-15T01:37:40;99893.50;;;-0.20;84.08
31092;BME280;67728;53.122;12.776;2023-03-15T01:39:12;99889.22;;;-0.21;83.57
31092;BME280;67728;53.122;12.776;2023-03-15T01:40:44;99888.34;;;-0.23;84.31
31092;BME280;67728;53.122;12.776;2023-03-15T01:42:15;99893.41;;;-0.26;83.88
31092;BME280;67728;53.122;12.776;2023-03-15T01:43:47;99895.91;;;-0.29;84.19
31092;BME280;67728;53.122;12.776;2023-03-15T01:45:58;99903.53;;;-0.29;84.31
31092;BME280;67728;53.122;12.776;2023-03-15T01:47:31;99906.06;;;-0.31;83.99
31092;BME280;67728;53.122;12.776;2023-03-15T01:49:06;99896.75;;;-0.30;84.01
31092;BME280;67728;53.122;12.776;2023-03-15T01:50:41;99902.72;;;-0.28;84.10
31092;BME280;67728;53.122;12.776;2023-03-15T01:52:17;99898.44;;;-0.31;84.09
31092;BME280;67728;53.122;12.776;2023-03-15T01:53:54;99904.38;;;-0.30;83.62
31092;BME280;67728;53.122;12.776;2023-03-15T01:55:28;99907.81;;;-0.28;83.49
31092;BME280;67728;53.122;12.776;2023-03-15T01:57:05;99906.09;;;-0.29;84.25
31092;BME280;67728;53.122;12.776;2023-03-15T01:58:40;99911.13;;;-0.34;83.42
31092;BME280;67728;53.122;12.776;2023-03-15T02:00:16;99916.22;;;-0.35;84.44
31092;BME280;67728;53.122;12.776;2023-03-15T02:01:49;99923.00;;;-0.34;83.89
31092;BME280;67728;53.122;12.776;2023-03-15T02:03:26;99924.63;;;-0.38;83.85
31092;BME280;67728;53.122;12.776;2023-03-15T02:05:03;99925.50;;;-0.37;84.18
31092;BME280;67728;53.122;12.776;2023-03-15T02:06:40;99927.22;;;-0.35;84.26
31092;BME280;67728;53.122;12.776;2023-03-15T02:08:16;99924.56;;;-0.42;84.25
31092;BME280;67728;53.122;12.776;2023-03-15T02:09:53;99923.84;;;-0.34;83.90
31092;BME280;67728;53.122;12.776;2023-03-15T02:11:28;99931.50;;;-0.34;83.92
31092;BME280;67728;53.122;12.776;2023-03-15T02:13:01;99934.88;;;-0.35;83.37
31092;BME280;67728;53.122;12.776;2023-03-15T02:14:34;99933.19;;;-0.36;83.92
31092;BME280;67728;53.122;12.776;2023-03-15T02:16:06;99936.53;;;-0.37;84.04
31092;BME280;67728;53.122;12.776;2023-03-15T02:17:40;99937.34;;;-0.41;84.66
31092;BME280;67728;53.122;12.776;2023-03-15T02:19:25;99940.75;;;-0.39;83.86
31092;BME280;67728;53.122;12.776;2023-03-15T02:21:07;99945.88;;;-0.37;84.20
31092;BME280;67728;53.122;12.776;2023-03-15T02:22:52;99946.72;;;-0.37;84.15
31092;BME280;67728;53.122;12.776;2023-03-15T02:24:30;99939.84;;;-0.42;84.35
31092;BME280;67728;53.122;12.776;2023-03-15T02:26:14;99938.09;;;-0.46;84.87
31092;BME280;67728;53.122;12.776;2023-03-15T02:27:50;99939.78;;;-0.45;84.29
31092;BME280;67728;53.122;12.776;2023-03-15T02:29:22;99933.88;;;-0.43;84.51
31092;BME280;67728;53.122;12.776;2023-03-15T02:30:56;99934.66;;;-0.48;84.43
31092;BME280;67728;53.122;12.776;2023-03-15T02:32:28;99936.31;;;-0.50;84.39
31092;BME280;67728;53.122;12.776;2023-03-15T02:34:01;99938.00;;;-0.51;84.15
31092;BME280;67728;53.122;12.776;2023-03-15T02:35:33;99940.53;;;-0.52;84.25
31092;BME280;67728;53.122;12.776;2023-03-15T02:37:05;99943.94;;;-0.52;84.25
31092;BME280;67728;53.122;12.776;2023-03-15T02:38:37;99950.72;;;-0.52;84.33
31092;BME280;67728;53.122;12.776;2023-03-15T02:40:16;99942.97;;;-0.58;84.92
31092;BME280;67728;53.122;12.776;2023-03-15T02:41:51;99947.22;;;-0.59;84.84
31092;BME280;67728;53.122;12.776;2023-03-15T02:43:27;99957.50;;;-0.54;84.63
31092;BME280;67728;53.122;12.776;2023-03-15T02:45:03;99963.41;;;-0.55;84.79
31092;BME280;67728;53.122;12.776;2023-03-15T02:46:34;99965.13;;;-0.54;84.62
31092;BME280;67728;53.122;12.776;2023-03-15T02:48:08;99965.13;;;-0.54;84.71
31092;BME280;67728;53.122;12.776;2023-03-15T02:49:42;99967.69;;;-0.53;85.04
31092;BME280;67728;53.122;12.776;2023-03-15T02:51:17;99958.44;;;-0.49;84.80
31092;BME280;67728;53.122;12.776;2023-03-15T02:52:50;99965.16;;;-0.53;84.45
31092;BME280;67728;53.122;12.776;2023-03-15T02:54:22;99969.41;;;-0.52;85.01
31092;BME280;67728;53.122;12.776;2023-03-15T02:55:53;99963.47;;;-0.52;84.69
31092;BME280;67728;53.122;12.776;2023-03-15T02:57:24;99959.19;;;-0.55;84.20
31092;BME280;67728;53.122;12.776;2023-03-15T02:58:57;99962.59;;;-0.54;84.55
31092;BME280;67728;53.122;12.776;2023-03-15T03:00:30;99965.94;;;-0.57;84.44
31092;BME280;67728;53.122;12.776;2023-03-15T03:02:02;99972.72;;;-0.56;84.76
31092;BME280;67728;53.122;12.776;2023-03-15T03:03:33;99971.84;;;-0.58;84.43
31092;BME280;67728;53.122;12.776;2023-03-15T03:05:05;99979.56;;;-0.55;84.61
31092;BME280;67728;53.122;12.776;2023-03-15T03:06:37;99970.13;;;-0.59;84.66
31092;BME280;67728;53.122;12.776;2023-03-15T03:08:07;99980.38;;;-0.56;84.35
31092;BME280;67728;53.122;12.776;2023-03-15T03:09:39;99974.34;;;-0.61;84.45
31092;BME280;67728;53.122;12.776;2023-03-15T03:11:10;99982.84;;;-0.61;84.58
31092;BME280;67728;53.122;12.776;2023-03-15T03:12:42;99981.09;;;-0.63;84.21
31092;BME280;67728;53.122;12.776;2023-03-15T03:14:15;99988.75;;;-0.62;84.49
31092;BME280;67728;53.122;12.776;2023-03-15T03:15:48;99994.72;;;-0.63;83.91
31092;BME280;67728;53.122;12.776;2023-03-15T03:17:27;100003.19;;;-0.62;84.63
31092;BME280;67728;53.122;12.776;2023-03-15T03:18:59;100003.09;;;-0.67;84.97
31092;BME280;67728;53.122;12.776;2023-03-15T03:20:30;100004.84;;;-0.66;84.65
31092;BME280;67728;53.122;12.776;2023-03-15T03:22:02;100007.38;;;-0.66;84.69
31092;BME280;67728;53.122;12.776;2023-03-15T03:23:35;100009.94;;;-0.66;84.67
31092;BME280;67728;53.122;12.776;2023-03-15T03:25:08;100012.41;;;-0.69;84.66
31092;BME280;67728;53.122;12.776;2023-03-15T03:26:40;100011.56;;;-0.68;84.56
31092;BME280;67728;53.122;12.776;2023-03-15T03:28:15;100020.00;;;-0.70;84.67
31092;BME280;67728;53.122;12.776;2023-03-15T03:29:48;100023.41;;;-0.70;84.88
31092;BME280;67728;53.122;12.776;2023-03-15T03:31:22;100021.78;;;-0.66;85.00
31092;BME280;67728;53.122;12.776;2023-03-15T03:32:54;100018.38;;;-0.68;84.90
31092;BME280;67728;53.122;12.776;2023-03-15T03:34:25;100024.28;;;-0.69;84.88
31092;BME280;67728;53.122;12.776;2023-03-15T03:35:59;100030.13;;;-0.75;85.08
31092;BME280;67728;53.122;12.776;2023-03-15T03:37:33;100024.09;;;-0.78;85.30
31092;BME280;67728;53.122;12.776;2023-03-15T03:39:05;100026.75;;;-0.74;85.74
31092;BME280;67728;53.122;12.776;2023-03-15T03:40:37;100027.56;;;-0.75;85.08
31092;BME280;67728;53.122;12.776;2023-03-15T03:42:09;100033.41;;;-0.80;85.05
31092;BME280;67728;53.122;12.776;2023-03-15T03:43:41;100044.44;;;-0.80;85.24
31092;BME280;67728;53.122;12.776;2023-03-15T03:45:14;100042.78;;;-0.78;85.17
31092;BME280;67728;53.122;12.776;2023-03-15T03:46:45;100049.53;;;-0.81;85.01
31092;BME280;67728;53.122;12.776;2023-03-15T03:48:17;100042.66;;;-0.84;85.67
31092;BME280;67728;53.122;12.776;2023-03-15T03:49:49;100051.16;;;-0.83;85.28
31092;BME280;67728;53.122;12.776;2023-03-15T03:51:21;100048.66;;;-0.82;85.15
31092;BME280;67728;53.122;12.776;2023-03-15T03:52:53;100049.47;;;-0.83;85.40
31092;BME280;67728;53.122;12.776;2023-03-15T03:54:24;100053.69;;;-0.85;85.64
31092;BME280;67728;53.122;12.776;2023-03-15T03:55:56;100046.00;;;-0.88;85.74
31092;BME280;67728;53.122;12.776;2023-03-15T03:57:28;100056.19;;;-0.86;85.21
31092;BME280;67728;53.122;12.776;2023-03-15T03:59:00;100052.81;;;-0.85;85.74
31092;BME280;67728;53.122;12.776;2023-03-15T04:00:34;100050.34;;;-0.82;85.21
31092;BME280;67728;53.122;12.776;2023-03-15T04:02:06;100051.09;;;-0.86;85.44
31092;BME280;67728;53.122;12.776;2023-03-15T04:03:38;100059.56;;;-0.87;85.68
31092;BME280;67728;53.122;12.776;2023-03-15T04:05:10;100057.84;;;-0.88;85.53
31092;BME280;67728;53.122;12.776;2023-03-15T04:06:41;100057.91;;;-0.87;85.61
31092;BME280;67728;53.122;12.776;2023-03-15T04:08:15;100062.19;;;-0.84;85.41
31092;BME280;67728;53.122;12.776;2023-03-15T04:09:46;100066.41;;;-0.85;85.88
31092;BME280;67728;53.122;12.776;2023-03-15T04:11:20;100061.25;;;-0.88;85.70
31092;BME280;67728;53.122;12.776;2023-03-15T04:12:52;100060.38;;;-0.90;85.52
31092;BME280;67728;53.122;12.776;2023-03-15T04:14:23;100069.72;;;-0.89;85.88
31092;BME280;67728;53.122;12.776;2023-03-15T04:15:58;100074.00;;;-0.86;85.71
31092;BME280;67728;53.122;12.776;2023-03-15T04:17:32;100070.56;;;-0.90;85.81
31092;BME280;67728;53.122;12.776;2023-03-15T04:19:05;100077.25;;;-0.93;85.15
31092;BME280;67728;53.122;12.776;2023-03-15T04:20:37;100078.94;;;-0.95;85.56
31092;BME280;67728;53.122;12.776;2023-03-15T04:22:07;100080.59;;;-0.96;86.14
31092;BME280;67728;53.122;12.776;2023-03-15T04:23:39;100077.19;;;-0.98;86.07
31092;BME280;67728;53.122;12.776;2023-03-15T04:25:11;100085.69;;;-0.96;85.97
31092;BME280;67728;53.122;12.776;2023-03-15T04:26:43;100091.59;;;-0.97;86.55
31092;BME280;67728;53.122;12.776;2023-03-15T04:28:15;100094.22;;;-0.94;86.04
31092;BME280;67728;53.122;12.776;2023-03-15T04:29:47;100091.59;;;-0.98;86.24
31092;BME280;67728;53.122;12.776;2023-03-15T04:31:20;100089.97;;;-0.95;85.94
31092;BME280;67728;53.122;12.776;2023-03-15T04:32:56;100098.44;;;-0.94;86.22
31092;BME280;67728;53.122;12.776;2023-03-15T04:34:28;100098.34;;;-0.99;86.31
31092;BME280;67728;53.122;12.776;2023-03-15T04:36:00;100095.00;;;-0.98;85.79
31092;BME280;67728;53.122;12.776;2023-03-15T04:37:32;100094.13;;;-0.98;86.43
31092;BME280;67728;53.122;12.776;2023-03-15T04:39:03;100093.28;;;-0.99;85.93
31092;BME280;67728;53.122;12.776;2023-03-15T04:40:36;100096.63;;;-1.00;86.23
31092;BME280;67728;53.122;12.776;2023-03-15T04:42:08;100085.63;;;-0.99;86.28
31092;BME280;67728;53.122;12.776;2023-03-15T04:43:40;100097.47;;;-1.01;86.36
31092;BME280;67728;53.122;12.776;2023-03-15T04:45:12;100088.16;;;-1.00;86.12
31092;BME280;67728;53.122;12.776;2023-03-15T04:46:45;100094.94;;;-0.99;86.17
31092;BME280;67728;53.122;12.776;2023-03-15T04:48:17;100088.19;;;-0.99;86.34
31092;BME280;67728;53.122;12.776;2023-03-15T04:49:49;100087.31;;;-0.99;86.08
31092;BME280;67728;53.122;12.776;2023-03-15T04:51:22;100091.59;;;-0.97;86.03
31092;BME280;67728;53.122;12.776;2023-03-15T04:52:53;100093.34;;;-0.96;85.83
31092;BME280;67728;53.122;12.776;2023-03-15T04:54:26;100100.09;;;-0.98;85.79
31092;BME280;67728;53.122;12.776;2023-03-15T04:55:57;100098.34;;;-0.99;86.15
31092;BME280;67728;53.122;12.776;2023-03-15T04:57:30;100100.88;;;-1.00;86.02
31092;BME280;67728;53.122;12.776;2023-03-15T04:59:01;100106.63;;;-1.09;86.49
31092;BME280;67728;53.122;12.776;2023-03-15T05:00:33;100111.09;;;-0.99;86.20
31092;BME280;67728;53.122;12.776;2023-03-15T05:02:06;100110.19;;;-1.01;86.21
31092;BME280;67728;53.122;12.776;2023-03-15T05:03:37;100115.28;;;-1.01;86.14
31092;BME280;67728;53.122;12.776;2023-03-15T05:05:09;100109.41;;;-0.98;85.92
31092;BME280;67728;53.122;12.776;2023-03-15T05:06:42;100114.41;;;-1.01;85.85
31092;BME280;67728;53.122;12.776;2023-03-15T05:08:13;100109.19;;;-1.07;85.75
31092;BME280;67728;53.122;12.776;2023-03-15T05:09:45;100110.84;;;-1.11;86.34
31092;BME280;67728;53.122;12.776;2023-03-15T05:11:18;100121.06;;;-1.08;86.57
31092;BME280;67728;53.122;12.776;2023-03-15T05:12:49;100127.81;;;-1.10;86.41
31092;BME280;67728;53.122;12.776;2023-03-15T05:14:21;100124.41;;;-1.10;85.81
31092;BME280;67728;53.122;12.776;2023-03-15T05:15:52;100132.00;;;-1.12;86.59
31092;BME280;67728;53.122;12.776;2023-03-15T05:17:25;100127.66;;;-1.16;86.88
31092;BME280;67728;53.122;12.776;2023-03-15T05:18:57;100127.72;;;-1.13;86.40
31092;BME280;67728;53.122;12.776;2023-03-15T05:20:29;100138.84;;;-1.09;86.18
31092;BME280;67728;53.122;12.776;2023-03-15T05:22:01;100145.63;;;-1.10;86.35
31092;BME280;67728;53.122;12.776;2023-03-15T05:23:33;100154.91;;;-1.12;86.43
31092;BME280;67728;53.122;12.776;2023-03-15T05:25:06;100160.09;;;-1.07;86.20
31092;BME280;67728;53.122;12.776;2023-03-15T05:26:39;100158.47;;;-1.04;85.70
31092;BME280;67728;53.122;12.776;2023-03-15T05:28:10;100159.28;;;-1.05;86.13
31092;BME280;67728;53.122;12.776;2023-03-15T05:29:41;100173.03;;;-0.97;86.21
31092;BME280;67728;53.122;12.776;2023-03-15T05:31:13;100171.41;;;-0.95;86.14
31092;BME280;67728;53.122;12.776;2023-03-15T05:32:46;100163.81;;;-0.93;86.06
31092;BME280;67728;53.122;12.776;2023-03-15T05:34:18;100166.47;;;-0.87;85.98
31092;BME280;67728;53.122;12.776;2023-03-15T05:35:53;100163.00;;;-0.91;85.98
31092;BME280;67728;53.122;12.776;2023-03-15T05:37:25;100167.38;;;-0.85;86.24
31092;BME280;67728;53.122;12.776;2023-03-15T05:38:57;100173.38;;;-0.82;86.21
31092;BME280;67728;53.122;12.776;2023-03-15T05:40:29;100179.38;;;-0.78;85.99
31092;BME280;67728;53.122;12.776;2023-03-15T05:41:59;100177.72;;;-0.78;85.61
31092;BME280;67728;53.122;12.776;2023-03-15T05:43:32;100188.84;;;-0.73;85.48
31092;BME280;67728;53.122;12.776;2023-03-15T05:45:04;100183.00;;;-0.69;85.69
31092;BME280;67728;53.122;12.776;2023-03-15T05:46:36;100189.78;;;-0.68;85.76
31092;BME280;67728;53.122;12.776;2023-03-15T05:48:10;100187.38;;;-0.63;85.41
31092;BME280;67728;53.122;12.776;2023-03-15T05:49:42;100194.28;;;-0.57;85.44
31092;BME280;67728;53.122;12.776;2023-03-15T05:51:13;100202.00;;;-0.53;85.01
31092;BME280;67728;53.122;12.776;2023-03-15T05:52:44;100191.06;;;-0.47;85.09
31092;BME280;67728;53.122;12.776;2023-03-15T05:54:15;100200.47;;;-0.45;85.42
31092;BME280;67728;53.122;12.776;2023-03-15T05:55:47;100203.06;;;-0.43;84.80
31092;BME280;67728;53.122;12.776;2023-03-15T05:57:18;100206.63;;;-0.35;84.51
31092;BME280;67728;53.122;12.776;2023-03-15T05:58:50;100206.66;;;-0.32;85.08
31092;BME280;67728;53.122;12.776;2023-03-15T06:00:22;100216.81;;;-0.34;84.50
31092;BME280;67728;53.122;12.776;2023-03-15T06:01:54;100217.72;;;-0.32;85.18
31092;BME280;67728;53.122;12.776;2023-03-15T06:03:27;100217.03;;;-0.25;85.28
31092;BME280;67728;53.122;12.776;2023-03-15T06:04:58;100222.13;;;-0.25;85.00
31092;BME280;67728;53.122;12.776;2023-03-15T06:06:30;100216.97;;;-0.26;84.08
31092;BME280;67728;53.122;12.776;2023-03-15T06:08:02;100221.25;;;-0.24;84.93
31092;BME280;67728;53.122;12.776;2023-03-15T06:09:34;100226.44;;;-0.21;84.57
31092;BME280;67728;53.122;12.776;2023-03-15T06:11:06;100225.63;;;-0.18;85.11
31092;BME280;67728;53.122;12.776;2023-03-15T06:12:37;100226.50;;;-0.18;84.90
31092;BME280;67728;53.122;12.776;2023-03-15T06:14:09;100228.97;;;-0.21;85.23
31092;BME280;67728;53.122;12.776;2023-03-15T06:15:41;100229.91;;;-0.17;84.16
31092;BME280;67728;53.122;12.776;2023-03-15T06:17:20;100236.75;;;-0.13;84.05
31092;BME280;67728;53.122;12.776;2023-03-15T06:18:54;100236.00;;;-0.09;84.37
31092;BME280;67728;53.122;12.776;2023-03-15T06:20:25;100236.06;;;-0.06;84.74
31092;BME280;67728;53.122;12.776;2023-03-15T06:21:57;100239.50;;;-0.04;84.42
31092;BME280;67728;53.122;12.776;2023-03-15T06:23:29;100242.13;;;-0.01;84.04
31092;BME280;67728;53.122;12.776;2023-03-15T06:25:01;100236.94;;;-0.04;84.30
31092;BME280;67728;53.122;12.776;2023-03-15T06:29:00;100253.25;;;0.04;84.59
31092;BME280;67728;53.122;12.776;2023-03-15T06:30:33;100255.03;;;0.08;85.06
31092;BME280;67728;53.122;12.776;2023-03-15T06:32:07;100262.72;;;0.11;84.59
31092;BME280;67728;53.122;12.776;2023-03-15T06:33:40;100265.25;;;0.08;84.14
31092;BME280;67728;53.122;12.776;2023-03-15T06:35:14;100271.25;;;0.12;83.20
31092;BME280;67728;53.122;12.776;2023-03-15T06:36:46;100270.47;;;0.16;84.44
31092;BME280;67728;53.122;12.776;2023-03-15T06:38:18;100272.13;;;0.14;83.93
31092;BME280;67728;53.122;12.776;2023-03-15T06:39:51;100279.84;;;0.17;84.43
31092;BME280;67728;53.122;12.776;2023-03-15T06:41:23;100280.63;;;0.13;83.71
31092;BME280;67728;53.122;12.776;2023-03-15T06:42:56;100284.13;;;0.18;84.43
31092;BME280;67728;53.122;12.776;2023-03-15T06:44:27;100282.44;;;0.20;83.44
31092;BME280;67728;53.122;12.776;2023-03-15T06:45:59;100279.94;;;0.23;83.71
31092;BME280;67728;53.122;12.776;2023-03-15T06:47:32;100291.94;;;0.27;83.98
31092;BME280;67728;53.122;12.776;2023-03-15T06:49:03;100292.72;;;0.23;83.77
31092;BME280;67728;53.122;12.776;2023-03-15T06:50:37;100291.84;;;0.22;83.04
31092;BME280;67728;53.122;12.776;2023-03-15T06:52:09;100294.44;;;0.25;83.74
31092;BME280;67728;53.122;12.776;2023-03-15T06:53:42;100299.63;;;0.28;84.11
31092;BME280;67728;53.122;12.776;2023-03-15T06:55:14;100302.19;;;0.30;83.29
31092;BME280;67728;53.122;12.776;2023-03-15T06:56:48;100311.63;;;0.34;83.62
31092;BME280;67728;53.122;12.776;2023-03-15T06:58:20;100313.25;;;0.30;83.41
31092;BME280;67728;53.122;12.776;2023-03-15T06:59:52;100312.50;;;0.34;83.98
31092;BME280;67728;53.122;12.776;2023-03-15T07:01:23;100315.91;;;0.35;84.00
31092;BME280;67728;53.122;12.776;2023-03-15T07:02:56;100319.41;;;0.40;83.35
31092;BME280;67728;53.122;12.776;2023-03-15T07:04:27;100322.84;;;0.43;82.98
31092;BME280;67728;53.122;12.776;2023-03-15T07:06:00;100319.53;;;0.47;82.61
31092;BME280;67728;53.122;12.776;2023-03-15T07:07:32;100324.78;;;0.55;82.68
31092;BME280;67728;53.122;12.776;2023-03-15T07:09:04;100320.53;;;0.55;82.43
31092;BME280;67728;53.122;12.776;2023-03-15T07:10:36;100327.41;;;0.59;82.40
31092;BME280;67728;53.122;12.776;2023-03-15T07:12:09;100323.28;;;0.66;82.20
31092;BME280;67728;53.122;12.776;2023-03-15T07:13:41;100332.72;;;0.72;81.98
31092;BME280;67728;53.122;12.776;2023-03-15T07:15:12;100335.28;;;0.70;82.55
31092;BME280;67728;53.122;12.776;2023-03-15T07:16:43;100343.00;;;0.75;81.62
31092;BME280;67728;53.122;12.776;2023-03-15T07:18:15;100339.53;;;0.71;81.89
31092;BME280;67728;53.122;12.776;2023-03-15T07:19:46;100347.25;;;0.74;81.78
31092;BME280;67728;53.122;12.776;2023-03-15T07:21:20;100342.19;;;0.76;82.38
31092;BME280;67728;53.122;12.776;2023-03-15T07:22:52;100348.19;;;0.79;81.97
31092;BME280;67728;53.122;12.776;2023-03-15T07:24:24;100351.59;;;0.80;81.78
31092;BME280;67728;53.122;12.776;2023-03-15T07:25:56;100350.72;;;0.79;82.36
31092;BME280;67728;53.122;12.776;2023-03-15T07:27:28;100348.19;;;0.79;82.46
31092;BME280;67728;53.122;12.776;2023-03-15T07:28:59;100348.22;;;0.81;81.94
31092;BME280;67728;53.122;12.776;2023-03-15T07:30:35;100345.72;;;0.84;79.42
31092;BME280;67728;53.122;12.776;2023-03-15T07:32:07;100360.38;;;0.95;79.20
31092;BME280;67728;53.122;12.776;2023-03-15T07:33:39;100355.25;;;0.94;79.54
31092;BME280;67728;53.122;12.776;2023-03-15T07:35:17;100351.16;;;1.02;80.66
31092;BME280;67728;53.122;12.776;2023-03-15T07:36:54;100356.31;;;1.05;79.35
31092;BME280;67728;53.122;12.776;2023-03-15T07:38:27;100348.66;;;1.06;79.71
31092;BME280;67728;53.122;12.776;2023-03-15T07:40:13;100350.28;;;1.03;79.43
31092;BME280;67728;53.122;12.776;2023-03-15T07:41:48;100349.53;;;1.08;79.88
31092;BME280;67728;53.122;12.776;2023-03-15T07:43:20;100352.19;;;1.14;79.78
31092;BME280;67728;53.122;12.776;2023-03-15T07:44:52;100356.47;;;1.15;80.75
31092;BME280;67728;53.122;12.776;2023-03-15T07:46:24;100351.25;;;1.09;80.08
31092;BME280;67728;53.122;12.776;2023-03-15T07:47:55;100359.00;;;1.14;79.97
31092;BME280;67728;53.122;12.776;2023-03-15T07:49:28;100357.25;;;1.11;79.75
31092;BME280;67728;53.122;12.776;2023-03-15T07:51:00;100361.59;;;1.17;79.74
31092;BME280;67728;53.122;12.776;2023-03-15T07:52:33;100371.91;;;1.22;79.56
31092;BME280;67728;53.122;12.776;2023-03-15T07:54:05;100374.63;;;1.32;79.58
31092;BME280;67728;53.122;12.776;2023-03-15T07:55:37;100366.22;;;1.39;79.44
31092;BME280;67728;53.122;12.776;2023-03-15T07:57:09;100368.81;;;1.42;79.16
31092;BME280;67728;53.122;12.776;2023-03-15T07:58:41;100361.94;;;1.38;77.99
31092;BME280;67728;53.122;12.776;2023-03-15T08:00:13;100364.59;;;1.43;79.07
31092;BME280;67728;53.122;12.776;2023-03-15T08:01:46;100371.44;;;1.47;78.89
31092;BME280;67728;53.122;12.776;2023-03-15T08:03:17;100369.88;;;1.55;79.38
31092;BME280;67728;53.122;12.776;2023-03-15T08:04:50;100369.09;;;1.60;78.62
31092;BME280;67728;53.122;12.776;2023-03-15T08:06:22;100371.81;;;1.69;78.05